Svartfoss — V2PR3 — position and weather

sailwx.info

Track history (hours):
 
Tides and Currents Weather Stations Pressure Air Temp Water Temp Dewpoint Dewpoint Depression Visibility Wind Speed Wind Dir Waves Ship Positions

Svartfoss

Last reported at 2015-May-26 16:04 UTC. Time now 2015-May-27 13:57 UTC.
Position N 69°33' E 018°44'.

Length 80 m; draft 5 m.

Type: Cargo ship. MMSI: 304882000.

Date/timePositionNaut miles runAvg speedWind from/ knotsBaromVisibWave heightAir tempDewpointWater temp
2015-May-26 16:04N 69°33' E 018°44'611.6
2015-May-26 15:33N 69°37' E 018°56'0 0.2
2015-May-26 14:33N 69°38' E 018°57'0 0.0
2015-May-26 13:33N 69°38' E 018°57'0 0.0
2015-May-26 12:33N 69°38' E 018°57'0 0.0
2015-May-26 11:33N 69°38' E 018°57'0 0.1
2015-May-26 10:33N 69°38' E 018°57'0 0.0
2015-May-26 09:33N 69°38' E 018°57'0 0.0
2015-May-26 08:33N 69°38' E 018°57'0 0.0
2015-May-26 07:33N 69°38' E 018°57'0 0.0
2015-May-26 06:33N 69°38' E 018°57'0 0.0
2015-May-26 05:33N 69°38' E 018°57'0 0.2
2015-May-26 04:33N 69°38' E 018°57'  
2015-May-22 17:08N 69°46' E 019°09'813.4
2015-May-22 16:33N 69°39' E 018°58'0 0.0
2015-May-22 15:33N 69°39' E 018°58'0 0.0
2015-May-22 14:33N 69°39' E 018°58'  
2015-May-20 09:20N 68°05' E 013°55'7010.1
2015-May-20 02:27N 66°57' E 013°20'1314.2
2015-May-20 01:30N 66°44' E 013°11'1514.2
2015-May-20 00:26N 66°29' E 012°59'81 7.4
2015-May-19 13:30N 65°13' E 011°53'1414.3
2015-May-19 12:33N 65°01' E 011°39'1413.9
2015-May-19 11:34N 64°52' E 011°15'5413.0
2015-May-19 07:23N 64°07' E 010°03'1012.0
2015-May-19 06:33N 63°58' E 009°53'1111.3
2015-May-19 05:33N 63°49' E 009°38'0 0.1
2015-May-19 01:34N 63°49' E 009°38'1312.9
2015-May-19 00:33N 63°40' E 009°16'5212.6
2015-May-18 20:23N 63°09' E 007°42'230 6.2
2015-May-17 07:29N 59°30' E 005°13'1313.7
2015-May-17 06:34N 59°18' E 005°20'1110.8
2015-May-17 05:33N 59°08' E 005°26'1312.7
2015-May-17 04:34N 59°01' E 005°48'10 9.9
2015-May-17 03:33N 58°51' E 005°45'0 0.0
2015-May-17 02:33N 58°51' E 005°45'0 0.0
2015-May-17 01:33N 58°51' E 005°45'8 8.1
2015-May-17 00:34N 58°59' E 005°48'8 7.7
2015-May-16 23:34N 58°59' E 005°33'1212.1
2015-May-16 22:33N 58°49' E 005°20'  
Track history (hours):
 
Tides and Currents Weather Stations Pressure Air Temp Water Temp Dewpoint Dewpoint Depression Visibility Wind Speed Wind Dir Waves Ship Positions

Svartfoss

Last reported at 2015-May-26 16:04 UTC. Time now 2015-May-27 13:57 UTC.
Position N 69°33' E 018°44'.

Length 80 m; draft 5 m.

Type: Cargo ship. MMSI: 304882000.

Date/timePositionNaut miles runAvg speedWind from/ knotsBaromVisibWave heightAir tempDewpointWater temp
2015-May-26 16:04N 69°33' E 018°44'611.6
2015-May-26 15:33N 69°37' E 018°56'0 0.2
2015-May-26 14:33N 69°38' E 018°57'0 0.0
2015-May-26 13:33N 69°38' E 018°57'0 0.0
2015-May-26 12:33N 69°38' E 018°57'0 0.0
2015-May-26 11:33N 69°38' E 018°57'0 0.1
2015-May-26 10:33N 69°38' E 018°57'0 0.0
2015-May-26 09:33N 69°38' E 018°57'0 0.0
2015-May-26 08:33N 69°38' E 018°57'0 0.0
2015-May-26 07:33N 69°38' E 018°57'0 0.0
2015-May-26 06:33N 69°38' E 018°57'0 0.0
2015-May-26 05:33N 69°38' E 018°57'0 0.2
2015-May-26 04:33N 69°38' E 018°57'  
2015-May-22 17:08N 69°46' E 019°09'813.4
2015-May-22 16:33N 69°39' E 018°58'0 0.0
2015-May-22 15:33N 69°39' E 018°58'0 0.0
2015-May-22 14:33N 69°39' E 018°58'  
2015-May-20 09:20N 68°05' E 013°55'7010.1
2015-May-20 02:27N 66°57' E 013°20'1314.2
2015-May-20 01:30N 66°44' E 013°11'1514.2
2015-May-20 00:26N 66°29' E 012°59'81 7.4
2015-May-19 13:30N 65°13' E 011°53'1414.3
2015-May-19 12:33N 65°01' E 011°39'1413.9
2015-May-19 11:34N 64°52' E 011°15'5413.0
2015-May-19 07:23N 64°07' E 010°03'1012.0
2015-May-19 06:33N 63°58' E 009°53'1111.3
2015-May-19 05:33N 63°49' E 009°38'0 0.1
2015-May-19 01:34N 63°49' E 009°38'1312.9
2015-May-19 00:33N 63°40' E 009°16'5212.6
2015-May-18 20:23N 63°09' E 007°42'230 6.2
2015-May-17 07:29N 59°30' E 005°13'1313.7
2015-May-17 06:34N 59°18' E 005°20'1110.8
2015-May-17 05:33N 59°08' E 005°26'1312.7
2015-May-17 04:34N 59°01' E 005°48'10 9.9
2015-May-17 03:33N 58°51' E 005°45'0 0.0
2015-May-17 02:33N 58°51' E 005°45'0 0.0
2015-May-17 01:33N 58°51' E 005°45'8 8.1
2015-May-17 00:34N 58°59' E 005°48'8 7.7
2015-May-16 23:34N 58°59' E 005°33'1212.1
2015-May-16 22:33N 58°49' E 005°20'  

Dump ship's entire track history